sensor_id;sensor_type;location;lat;lon;timestamp;P1;durP1;ratioP1;P2;durP2;ratioP2
3149;SDS011;32503;47.748;8.960;2023-08-06T00:00:00;2.80;;;2.60;;
3149;SDS011;32503;47.748;8.960;2023-08-06T00:02:27;2.10;;;2.00;;
3149;SDS011;32503;47.748;8.960;2023-08-06T00:04:54;2.80;;;2.70;;
3149;SDS011;32503;47.748;8.960;2023-08-06T00:07:21;2.33;;;2.23;;
3149;SDS011;32503;47.748;8.960;2023-08-06T00:09:50;2.57;;;2.47;;
3149;SDS011;32503;47.748;8.960;2023-08-06T00:12:17;2.10;;;2.00;;
3149;SDS011;32503;47.748;8.960;2023-08-06T00:14:44;2.20;;;2.10;;
3149;SDS011;32503;47.748;8.960;2023-08-06T00:17:11;2.17;;;2.07;;
3149;SDS011;32503;47.748;8.960;2023-08-06T00:19:39;2.07;;;1.97;;
3149;SDS011;32503;47.748;8.960;2023-08-06T00:22:06;2.30;;;2.20;;
3149;SDS011;32503;47.748;8.960;2023-08-06T00:24:33;2.13;;;2.03;;
3149;SDS011;32503;47.748;8.960;2023-08-06T00:27:02;2.97;;;2.13;;
3149;SDS011;32503;47.748;8.960;2023-08-06T00:29:30;2.20;;;2.10;;
3149;SDS011;32503;47.748;8.960;2023-08-06T00:31:57;2.10;;;1.90;;
3149;SDS011;32503;47.748;8.960;2023-08-06T00:34:24;1.93;;;1.83;;
3149;SDS011;32503;47.748;8.960;2023-08-06T00:36:51;2.37;;;2.17;;
3149;SDS011;32503;47.748;8.960;2023-08-06T00:39:18;2.40;;;2.30;;
3149;SDS011;32503;47.748;8.960;2023-08-06T00:41:46;2.10;;;2.00;;
3149;SDS011;32503;47.748;8.960;2023-08-06T00:44:14;2.13;;;2.00;;
3149;SDS011;32503;47.748;8.960;2023-08-06T00:46:41;2.20;;;2.10;;
3149;SDS011;32503;47.748;8.960;2023-08-06T00:49:09;2.00;;;1.90;;
3149;SDS011;32503;47.748;8.960;2023-08-06T00:51:36;2.90;;;2.70;;
3149;SDS011;32503;47.748;8.960;2023-08-06T00:54:04;2.17;;;1.90;;
3149;SDS011;32503;47.748;8.960;2023-08-06T00:56:31;2.33;;;2.23;;
3149;SDS011;32503;47.748;8.960;2023-08-06T00:59:01;2.10;;;2.00;;
3149;SDS011;32503;47.748;8.960;2023-08-06T01:01:30;3.30;;;3.10;;
3149;SDS011;32503;47.748;8.960;2023-08-06T01:03:57;2.17;;;1.77;;
3149;SDS011;32503;47.748;8.960;2023-08-06T01:06:29;2.13;;;2.03;;
3149;SDS011;32503;47.748;8.960;2023-08-06T01:09:15;2.07;;;1.97;;
3149;SDS011;32503;47.748;8.960;2023-08-06T01:11:59;2.13;;;2.03;;
3149;SDS011;32503;47.748;8.960;2023-08-06T01:14:37;2.07;;;1.97;;
3149;SDS011;32503;47.748;8.960;2023-08-06T01:17:13;1.93;;;1.83;;
3149;SDS011;32503;47.748;8.960;2023-08-06T01:19:41;2.43;;;2.13;;
3149;SDS011;32503;47.748;8.960;2023-08-06T01:22:10;2.03;;;1.93;;
3149;SDS011;32503;47.748;8.960;2023-08-06T01:24:37;2.00;;;1.90;;
3149;SDS011;32503;47.748;8.960;2023-08-06T01:27:06;2.57;;;2.47;;
3149;SDS011;32503;47.748;8.960;2023-08-06T01:29:39;2.37;;;2.27;;
3149;SDS011;32503;47.748;8.960;2023-08-06T01:32:11;2.60;;;2.50;;
3149;SDS011;32503;47.748;8.960;2023-08-06T01:34:40;2.23;;;2.13;;
3149;SDS011;32503;47.748;8.960;2023-08-06T01:37:11;1.97;;;1.87;;
3149;SDS011;32503;47.748;8.960;2023-08-06T01:39:39;1.97;;;1.87;;
3149;SDS011;32503;47.748;8.960;2023-08-06T01:42:08;2.10;;;2.00;;
3149;SDS011;32503;47.748;8.960;2023-08-06T01:44:36;2.30;;;2.20;;
3149;SDS011;32503;47.748;8.960;2023-08-06T01:47:03;2.33;;;2.23;;
3149;SDS011;32503;47.748;8.960;2023-08-06T01:49:31;1.83;;;1.73;;
3149;SDS011;32503;47.748;8.960;2023-08-06T01:51:58;2.30;;;2.20;;
3149;SDS011;32503;47.748;8.960;2023-08-06T01:54:27;3.10;;;2.10;;
3149;SDS011;32503;47.748;8.960;2023-08-06T01:56:54;2.10;;;2.00;;
3149;SDS011;32503;47.748;8.960;2023-08-06T01:59:23;2.80;;;2.60;;
3149;SDS011;32503;47.748;8.960;2023-08-06T02:01:50;2.47;;;2.37;;
3149;SDS011;32503;47.748;8.960;2023-08-06T02:04:17;2.50;;;2.40;;
3149;SDS011;32503;47.748;8.960;2023-08-06T02:06:45;2.37;;;2.27;;
3149;SDS011;32503;47.748;8.960;2023-08-06T02:09:12;2.43;;;2.30;;
3149;SDS011;32503;47.748;8.960;2023-08-06T02:11:40;2.10;;;2.00;;
3149;SDS011;32503;47.748;8.960;2023-08-06T02:14:08;2.63;;;2.53;;
3149;SDS011;32503;47.748;8.960;2023-08-06T02:16:35;2.03;;;1.93;;
3149;SDS011;32503;47.748;8.960;2023-08-06T02:19:02;2.87;;;2.10;;
3149;SDS011;32503;47.748;8.960;2023-08-06T02:21:30;3.83;;;3.63;;
3149;SDS011;32503;47.748;8.960;2023-08-06T02:23:57;2.53;;;2.43;;
3149;SDS011;32503;47.748;8.960;2023-08-06T02:26:24;2.30;;;2.20;;
3149;SDS011;32503;47.748;8.960;2023-08-06T02:28:52;2.13;;;2.03;;
3149;SDS011;32503;47.748;8.960;2023-08-06T02:31:19;2.00;;;1.90;;
3149;SDS011;32503;47.748;8.960;2023-08-06T02:33:46;2.47;;;2.37;;
3149;SDS011;32503;47.748;8.960;2023-08-06T02:36:13;1.90;;;1.80;;
3149;SDS011;32503;47.748;8.960;2023-08-06T02:38:40;2.53;;;2.33;;
3149;SDS011;32503;47.748;8.960;2023-08-06T02:41:08;2.30;;;2.20;;
3149;SDS011;32503;47.748;8.960;2023-08-06T02:43:35;3.13;;;2.93;;
3149;SDS011;32503;47.748;8.960;2023-08-06T02:46:03;2.60;;;2.20;;
3149;SDS011;32503;47.748;8.960;2023-08-06T02:48:30;2.33;;;2.23;;
3149;SDS011;32503;47.748;8.960;2023-08-06T02:50:57;2.60;;;2.50;;
3149;SDS011;32503;47.748;8.960;2023-08-06T02:53:25;1.90;;;1.80;;
3149;SDS011;32503;47.748;8.960;2023-08-06T02:55:52;1.80;;;1.70;;
3149;SDS011;32503;47.748;8.960;2023-08-06T02:58:20;1.87;;;1.77;;
3149;SDS011;32503;47.748;8.960;2023-08-06T03:00:58;1.83;;;1.73;;
3149;SDS011;32503;47.748;8.960;2023-08-06T03:03:29;2.93;;;1.90;;
3149;SDS011;32503;47.748;8.960;2023-08-06T03:05:56;1.70;;;1.60;;
3149;SDS011;32503;47.748;8.960;2023-08-06T03:08:23;2.23;;;2.03;;
3149;SDS011;32503;47.748;8.960;2023-08-06T03:10:51;2.33;;;2.23;;
3149;SDS011;32503;47.748;8.960;2023-08-06T03:13:18;1.53;;;1.43;;
3149;SDS011;32503;47.748;8.960;2023-08-06T03:15:51;2.13;;;1.93;;
3149;SDS011;32503;47.748;8.960;2023-08-06T03:18:20;1.50;;;1.40;;
3149;SDS011;32503;47.748;8.960;2023-08-06T03:20:48;1.80;;;1.70;;
3149;SDS011;32503;47.748;8.960;2023-08-06T03:23:15;1.97;;;1.33;;
3149;SDS011;32503;47.748;8.960;2023-08-06T03:25:42;1.70;;;1.60;;
3149;SDS011;32503;47.748;8.960;2023-08-06T03:28:10;1.30;;;1.20;;
3149;SDS011;32503;47.748;8.960;2023-08-06T03:30:37;1.77;;;1.53;;
3149;SDS011;32503;47.748;8.960;2023-08-06T03:33:04;1.80;;;1.70;;
3149;SDS011;32503;47.748;8.960;2023-08-06T03:35:31;1.03;;;1.00;;
3149;SDS011;32503;47.748;8.960;2023-08-06T03:38:00;1.30;;;1.20;;
3149;SDS011;32503;47.748;8.960;2023-08-06T03:40:27;1.60;;;1.27;;
3149;SDS011;32503;47.748;8.960;2023-08-06T03:42:54;1.77;;;1.67;;
3149;SDS011;32503;47.748;8.960;2023-08-06T03:45:21;1.90;;;1.17;;
3149;SDS011;32503;47.748;8.960;2023-08-06T03:47:48;1.17;;;1.07;;
3149;SDS011;32503;47.748;8.960;2023-08-06T03:50:15;1.47;;;1.37;;
3149;SDS011;32503;47.748;8.960;2023-08-06T03:52:42;1.60;;;1.50;;
3149;SDS011;32503;47.748;8.960;2023-08-06T03:55:11;1.30;;;1.20;;
3149;SDS011;32503;47.748;8.960;2023-08-06T03:57:38;4.03;;;3.73;;
3149;SDS011;32503;47.748;8.960;2023-08-06T04:00:05;1.80;;;1.70;;
3149;SDS011;32503;47.748;8.960;2023-08-06T04:02:34;1.70;;;1.40;;
3149;SDS011;32503;47.748;8.960;2023-08-06T04:05:01;1.57;;;1.47;;
3149;SDS011;32503;47.748;8.960;2023-08-06T04:07:28;1.50;;;1.40;;
3149;SDS011;32503;47.748;8.960;2023-08-06T04:09:56;1.93;;;1.63;;
3149;SDS011;32503;47.748;8.960;2023-08-06T04:12:26;1.37;;;1.27;;
3149;SDS011;32503;47.748;8.960;2023-08-06T04:14:53;1.67;;;1.57;;
3149;SDS011;32503;47.748;8.960;2023-08-06T04:17:23;1.23;;;1.10;;
3149;SDS011;32503;47.748;8.960;2023-08-06T04:19:51;1.43;;;1.33;;
3149;SDS011;32503;47.748;8.960;2023-08-06T04:22:20;1.33;;;1.23;;
3149;SDS011;32503;47.748;8.960;2023-08-06T04:24:47;1.47;;;1.37;;
3149;SDS011;32503;47.748;8.960;2023-08-06T04:27:15;2.63;;;1.23;;
3149;SDS011;32503;47.748;8.960;2023-08-06T04:29:46;2.20;;;1.77;;
3149;SDS011;32503;47.748;8.960;2023-08-06T04:32:13;1.33;;;1.23;;
3149;SDS011;32503;47.748;8.960;2023-08-06T04:34:40;1.20;;;1.10;;
3149;SDS011;32503;47.748;8.960;2023-08-06T04:37:08;1.20;;;1.10;;
3149;SDS011;32503;47.748;8.960;2023-08-06T04:39:35;1.40;;;1.30;;
3149;SDS011;32503;47.748;8.960;2023-08-06T04:42:02;1.00;;;0.90;;
3149;SDS011;32503;47.748;8.960;2023-08-06T04:44:30;1.33;;;0.80;;
3149;SDS011;32503;47.748;8.960;2023-08-06T04:46:59;0.83;;;0.70;;
3149;SDS011;32503;47.748;8.960;2023-08-06T04:49:26;1.33;;;1.23;;
3149;SDS011;32503;47.748;8.960;2023-08-06T04:51:53;1.10;;;1.00;;
3149;SDS011;32503;47.748;8.960;2023-08-06T04:54:20;0.83;;;0.73;;
3149;SDS011;32503;47.748;8.960;2023-08-06T04:56:47;0.80;;;0.73;;
3149;SDS011;32503;47.748;8.960;2023-08-06T04:59:14;0.70;;;0.63;;
3149;SDS011;32503;47.748;8.960;2023-08-06T05:01:41;0.70;;;0.50;;
3149;SDS011;32503;47.748;8.960;2023-08-06T05:04:09;1.87;;;0.80;;
3149;SDS011;32503;47.748;8.960;2023-08-06T05:06:36;1.53;;;0.83;;
3149;SDS011;32503;47.748;8.960;2023-08-06T05:09:05;1.00;;;0.80;;
3149;SDS011;32503;47.748;8.960;2023-08-06T05:11:32;1.00;;;0.90;;
3149;SDS011;32503;47.748;8.960;2023-08-06T05:13:59;1.93;;;0.83;;
3149;SDS011;32503;47.748;8.960;2023-08-06T05:16:26;2.30;;;0.70;;
3149;SDS011;32503;47.748;8.960;2023-08-06T05:18:54;1.27;;;0.67;;
3149;SDS011;32503;47.748;8.960;2023-08-06T05:21:25;2.93;;;0.63;;
3149;SDS011;32503;47.748;8.960;2023-08-06T05:23:52;0.70;;;0.60;;
3149;SDS011;32503;47.748;8.960;2023-08-06T05:26:19;1.10;;;0.50;;
3149;SDS011;32503;47.748;8.960;2023-08-06T05:28:46;0.73;;;0.50;;
3149;SDS011;32503;47.748;8.960;2023-08-06T05:31:13;1.23;;;0.80;;
3149;SDS011;32503;47.748;8.960;2023-08-06T05:33:40;1.93;;;1.20;;
3149;SDS011;32503;47.748;8.960;2023-08-06T05:36:07;0.60;;;0.50;;
3149;SDS011;32503;47.748;8.960;2023-08-06T05:38:36;0.60;;;0.50;;
3149;SDS011;32503;47.748;8.960;2023-08-06T05:41:03;0.60;;;0.50;;
3149;SDS011;32503;47.748;8.960;2023-08-06T05:43:30;0.70;;;0.50;;
3149;SDS011;32503;47.748;8.960;2023-08-06T05:45:57;0.80;;;0.60;;
3149;SDS011;32503;47.748;8.960;2023-08-06T05:48:24;1.00;;;0.40;;
3149;SDS011;32503;47.748;8.960;2023-08-06T05:50:53;0.90;;;0.50;;
3149;SDS011;32503;47.748;8.960;2023-08-06T05:53:20;0.63;;;0.40;;
3149;SDS011;32503;47.748;8.960;2023-08-06T05:55:48;1.97;;;0.50;;
3149;SDS011;32503;47.748;8.960;2023-08-06T05:58:16;0.60;;;0.50;;
3149;SDS011;32503;47.748;8.960;2023-08-06T06:00:45;0.70;;;0.50;;
3149;SDS011;32503;47.748;8.960;2023-08-06T06:03:12;0.60;;;0.40;;
3149;SDS011;32503;47.748;8.960;2023-08-06T06:05:39;1.77;;;0.43;;
3149;SDS011;32503;47.748;8.960;2023-08-06T06:08:06;0.97;;;0.40;;
3149;SDS011;32503;47.748;8.960;2023-08-06T06:10:33;0.83;;;0.70;;
3149;SDS011;32503;47.748;8.960;2023-08-06T06:13:03;0.63;;;0.60;;
3149;SDS011;32503;47.748;8.960;2023-08-06T06:15:30;1.53;;;0.60;;
3149;SDS011;32503;47.748;8.960;2023-08-06T06:17:57;0.67;;;0.60;;
3149;SDS011;32503;47.748;8.960;2023-08-06T06:20:24;1.30;;;1.00;;
3149;SDS011;32503;47.748;8.960;2023-08-06T06:22:51;0.70;;;0.50;;
3149;SDS011;32503;47.748;8.960;2023-08-06T06:25:18;0.83;;;0.67;;
3149;SDS011;32503;47.748;8.960;2023-08-06T06:27:45;1.43;;;0.60;;
3149;SDS011;32503;47.748;8.960;2023-08-06T06:30:13;0.80;;;0.80;;
3149;SDS011;32503;47.748;8.960;2023-08-06T06:32:41;0.97;;;0.70;;
3149;SDS011;32503;47.748;8.960;2023-08-06T06:35:08;2.00;;;0.93;;
3149;SDS011;32503;47.748;8.960;2023-08-06T06:37:35;1.57;;;0.73;;
3149;SDS011;32503;47.748;8.960;2023-08-06T06:40:02;2.70;;;0.67;;
3149;SDS011;32503;47.748;8.960;2023-08-06T06:42:30;0.90;;;0.80;;
3149;SDS011;32503;47.748;8.960;2023-08-06T06:44:57;0.83;;;0.70;;
3149;SDS011;32503;47.748;8.960;2023-08-06T06:47:26;0.80;;;0.73;;
3149;SDS011;32503;47.748;8.960;2023-08-06T06:49:53;0.60;;;0.43;;
3149;SDS011;32503;47.748;8.960;2023-08-06T06:52:20;0.90;;;0.50;;
3149;SDS011;32503;47.748;8.960;2023-08-06T06:54:47;4.70;;;1.03;;
3149;SDS011;32503;47.748;8.960;2023-08-06T06:57:15;0.80;;;0.70;;
3149;SDS011;32503;47.748;8.960;2023-08-06T06:59:42;2.30;;;0.57;;
3149;SDS011;32503;47.748;8.960;2023-08-06T07:02:09;0.70;;;0.60;;
3149;SDS011;32503;47.748;8.960;2023-08-06T07:04:37;0.70;;;0.60;;
3149;SDS011;32503;47.748;8.960;2023-08-06T07:07:04;0.70;;;0.60;;
3149;SDS011;32503;47.748;8.960;2023-08-06T07:09:31;0.70;;;0.60;;
3149;SDS011;32503;47.748;8.960;2023-08-06T07:11:58;0.70;;;0.57;;
3149;SDS011;32503;47.748;8.960;2023-08-06T07:14:26;0.70;;;0.50;;
3149;SDS011;32503;47.748;8.960;2023-08-06T07:16:54;1.13;;;0.70;;
3149;SDS011;32503;47.748;8.960;2023-08-06T07:19:23;0.70;;;0.60;;
3149;SDS011;32503;47.748;8.960;2023-08-06T07:21:51;0.80;;;0.50;;
3149;SDS011;32503;47.748;8.960;2023-08-06T07:24:18;2.10;;;0.60;;
3149;SDS011;32503;47.748;8.960;2023-08-06T07:26:45;0.70;;;0.70;;
3149;SDS011;32503;47.748;8.960;2023-08-06T07:29:13;0.70;;;0.60;;
3149;SDS011;32503;47.748;8.960;2023-08-06T07:31:44;0.67;;;0.50;;
3149;SDS011;32503;47.748;8.960;2023-08-06T07:34:12;3.47;;;0.80;;
3149;SDS011;32503;47.748;8.960;2023-08-06T07:36:39;0.70;;;0.60;;
3149;SDS011;32503;47.748;8.960;2023-08-06T07:39:07;0.60;;;0.50;;
3149;SDS011;32503;47.748;8.960;2023-08-06T07:41:35;0.70;;;0.67;;
3149;SDS011;32503;47.748;8.960;2023-08-06T07:44:02;0.80;;;0.80;;
3149;SDS011;32503;47.748;8.960;2023-08-06T07:46:29;0.60;;;0.50;;
3149;SDS011;32503;47.748;8.960;2023-08-06T07:48:56;0.80;;;0.40;;
3149;SDS011;32503;47.748;8.960;2023-08-06T07:51:23;1.37;;;0.50;;
3149;SDS011;32503;47.748;8.960;2023-08-06T07:53:51;0.77;;;0.70;;
3149;SDS011;32503;47.748;8.960;2023-08-06T07:56:19;1.93;;;0.60;;
3149;SDS011;32503;47.748;8.960;2023-08-06T07:58:46;0.60;;;0.50;;
3149;SDS011;32503;47.748;8.960;2023-08-06T08:01:13;1.00;;;0.70;;
3149;SDS011;32503;47.748;8.960;2023-08-06T08:03:40;0.60;;;0.50;;
3149;SDS011;32503;47.748;8.960;2023-08-06T08:06:07;0.60;;;0.50;;
3149;SDS011;32503;47.748;8.960;2023-08-06T08:08:34;0.57;;;0.40;;
3149;SDS011;32503;47.748;8.960;2023-08-06T08:11:03;0.70;;;0.50;;
3149;SDS011;32503;47.748;8.960;2023-08-06T08:13:33;0.70;;;0.40;;
3149;SDS011;32503;47.748;8.960;2023-08-06T08:16:00;1.23;;;0.40;;
3149;SDS011;32503;47.748;8.960;2023-08-06T08:18:28;0.60;;;0.40;;
3149;SDS011;32503;47.748;8.960;2023-08-06T08:20:56;0.60;;;0.40;;
3149;SDS011;32503;47.748;8.960;2023-08-06T08:23:23;0.60;;;0.50;;
3149;SDS011;32503;47.748;8.960;2023-08-06T08:25:50;0.77;;;0.50;;
3149;SDS011;32503;47.748;8.960;2023-08-06T08:28:17;1.10;;;0.40;;
3149;SDS011;32503;47.748;8.960;2023-08-06T08:30:46;0.60;;;0.40;;
3149;SDS011;32503;47.748;8.960;2023-08-06T08:33:13;1.03;;;0.50;;
3149;SDS011;32503;47.748;8.960;2023-08-06T08:35:40;0.50;;;0.40;;
3149;SDS011;32503;47.748;8.960;2023-08-06T08:38:07;0.57;;;0.40;;
3149;SDS011;32503;47.748;8.960;2023-08-06T08:40:34;0.50;;;0.30;;
3149;SDS011;32503;47.748;8.960;2023-08-06T08:43:09;0.60;;;0.40;;
3149;SDS011;32503;47.748;8.960;2023-08-06T08:45:39;1.93;;;1.83;;
3149;SDS011;32503;47.748;8.960;2023-08-06T08:48:09;0.50;;;0.40;;
3149;SDS011;32503;47.748;8.960;2023-08-06T08:50:39;0.60;;;0.40;;
3149;SDS011;32503;47.748;8.960;2023-08-06T08:53:07;0.50;;;0.30;;
3149;SDS011;32503;47.748;8.960;2023-08-06T08:55:37;0.53;;;0.37;;
3149;SDS011;32503;47.748;8.960;2023-08-06T08:58:05;0.60;;;0.40;;
3149;SDS011;32503;47.748;8.960;2023-08-06T09:00:33;0.60;;;0.47;;
3149;SDS011;32503;47.748;8.960;2023-08-06T09:03:01;0.57;;;0.40;;
3149;SDS011;32503;47.748;8.960;2023-08-06T09:05:33;0.60;;;0.40;;
3149;SDS011;32503;47.748;8.960;2023-08-06T09:08:02;0.50;;;0.40;;
3149;SDS011;32503;47.748;8.960;2023-08-06T09:10:30;0.50;;;0.40;;
3149;SDS011;32503;47.748;8.960;2023-08-06T09:12:57;0.50;;;0.40;;
3149;SDS011;32503;47.748;8.960;2023-08-06T09:15:26;0.50;;;0.30;;
3149;SDS011;32503;47.748;8.960;2023-08-06T09:17:54;0.50;;;0.30;;
3149;SDS011;32503;47.748;8.960;2023-08-06T09:20:22;0.60;;;0.40;;
3149;SDS011;32503;47.748;8.960;2023-08-06T09:22:50;0.50;;;0.40;;
3149;SDS011;32503;47.748;8.960;2023-08-06T09:25:20;0.50;;;0.40;;
3149;SDS011;32503;47.748;8.960;2023-08-06T09:27:50;0.60;;;0.40;;
3149;SDS011;32503;47.748;8.960;2023-08-06T09:30:28;0.77;;;0.40;;
3149;SDS011;32503;47.748;8.960;2023-08-06T09:32:57;0.60;;;0.40;;
3149;SDS011;32503;47.748;8.960;2023-08-06T09:35:24;0.60;;;0.50;;
3149;SDS011;32503;47.748;8.960;2023-08-06T09:37:56;0.53;;;0.40;;
3149;SDS011;32503;47.748;8.960;2023-08-06T09:40:32;0.50;;;0.40;;
3149;SDS011;32503;47.748;8.960;2023-08-06T09:43:00;0.50;;;0.40;;
3149;SDS011;32503;47.748;8.960;2023-08-06T09:45:28;0.60;;;0.50;;
3149;SDS011;32503;47.748;8.960;2023-08-06T09:47:58;0.60;;;0.40;;
3149;SDS011;32503;47.748;8.960;2023-08-06T09:50:27;0.60;;;0.40;;
3149;SDS011;32503;47.748;8.960;2023-08-06T09:52:58;0.60;;;0.40;;
3149;SDS011;32503;47.748;8.960;2023-08-06T09:55:29;0.60;;;0.40;;
3149;SDS011;32503;47.748;8.960;2023-08-06T09:57:58;0.70;;;0.50;;
3149;SDS011;32503;47.748;8.960;2023-08-06T10:00:26;0.57;;;0.40;;
3149;SDS011;32503;47.748;8.960;2023-08-06T10:02:54;0.50;;;0.40;;
3149;SDS011;32503;47.748;8.960;2023-08-06T10:05:25;0.57;;;0.40;;
3149;SDS011;32503;47.748;8.960;2023-08-06T10:07:53;0.60;;;0.40;;
3149;SDS011;32503;47.748;8.960;2023-08-06T10:10:23;0.50;;;0.40;;
3149;SDS011;32503;47.748;8.960;2023-08-06T10:12:51;0.60;;;0.40;;
3149;SDS011;32503;47.748;8.960;2023-08-06T10:15:23;1.20;;;0.50;;
3149;SDS011;32503;47.748;8.960;2023-08-06T10:17:54;0.60;;;0.50;;
3149;SDS011;32503;47.748;8.960;2023-08-06T10:20:24;0.60;;;0.43;;
3149;SDS011;32503;47.748;8.960;2023-08-06T10:25:41;0.60;;;0.40;;
3149;SDS011;32503;47.748;8.960;2023-08-06T10:28:09;0.60;;;0.40;;
3149;SDS011;32503;47.748;8.960;2023-08-06T10:30:41;0.57;;;0.40;;
3149;SDS011;32503;47.748;8.960;2023-08-06T10:33:10;0.50;;;0.40;;
3149;SDS011;32503;47.748;8.960;2023-08-06T10:35:37;1.57;;;0.40;;
3149;SDS011;32503;47.748;8.960;2023-08-06T10:38:10;0.63;;;0.50;;
3149;SDS011;32503;47.748;8.960;2023-08-06T10:40:41;0.60;;;0.40;;
3149;SDS011;32503;47.748;8.960;2023-08-06T10:43:24;0.60;;;0.40;;
3149;SDS011;32503;47.748;8.960;2023-08-06T10:45:52;0.50;;;0.40;;
3149;SDS011;32503;47.748;8.960;2023-08-06T10:48:28;2.50;;;0.40;;
3149;SDS011;32503;47.748;8.960;2023-08-06T10:50:58;0.60;;;0.40;;
3149;SDS011;32503;47.748;8.960;2023-08-06T10:53:30;0.60;;;0.40;;
3149;SDS011;32503;47.748;8.960;2023-08-06T10:55:58;0.60;;;0.40;;
3149;SDS011;32503;47.748;8.960;2023-08-06T10:58:26;0.50;;;0.40;;
3149;SDS011;32503;47.748;8.960;2023-08-06T11:00:59;0.50;;;0.40;;
3149;SDS011;32503;47.748;8.960;2023-08-06T11:03:26;0.60;;;0.40;;
3149;SDS011;32503;47.748;8.960;2023-08-06T11:05:54;0.60;;;0.40;;
3149;SDS011;32503;47.748;8.960;2023-08-06T11:08:24;0.50;;;0.40;;
3149;SDS011;32503;47.748;8.960;2023-08-06T11:10:52;0.60;;;0.40;;
3149;SDS011;32503;47.748;8.960;2023-08-06T11:13:21;0.50;;;0.40;;
3149;SDS011;32503;47.748;8.960;2023-08-06T11:15:50;1.23;;;1.23;;
3149;SDS011;32503;47.748;8.960;2023-08-06T11:18:19;0.60;;;0.40;;
3149;SDS011;32503;47.748;8.960;2023-08-06T11:20:47;0.70;;;0.40;;
3149;SDS011;32503;47.748;8.960;2023-08-06T11:23:14;0.60;;;0.43;;
3149;SDS011;32503;47.748;8.960;2023-08-06T11:25:43;0.50;;;0.30;;
3149;SDS011;32503;47.748;8.960;2023-08-06T11:28:11;0.60;;;0.40;;
3149;SDS011;32503;47.748;8.960;2023-08-06T11:30:40;0.60;;;0.40;;
3149;SDS011;32503;47.748;8.960;2023-08-06T11:33:07;0.70;;;0.50;;
3149;SDS011;32503;47.748;8.960;2023-08-06T11:35:35;1.33;;;0.40;;
3149;SDS011;32503;47.748;8.960;2023-08-06T11:38:04;0.60;;;0.40;;
3149;SDS011;32503;47.748;8.960;2023-08-06T11:40:32;0.57;;;0.40;;
3149;SDS011;32503;47.748;8.960;2023-08-06T11:43:01;0.60;;;0.40;;
3149;SDS011;32503;47.748;8.960;2023-08-06T11:45:28;0.70;;;0.50;;
3149;SDS011;32503;47.748;8.960;2023-08-06T11:47:57;0.60;;;0.50;;
3149;SDS011;32503;47.748;8.960;2023-08-06T11:50:25;0.60;;;0.40;;
3149;SDS011;32503;47.748;8.960;2023-08-06T11:52:54;0.60;;;0.40;;
3149;SDS011;32503;47.748;8.960;2023-08-06T11:55:23;0.60;;;0.40;;
3149;SDS011;32503;47.748;8.960;2023-08-06T11:57:53;3.33;;;0.70;;
3149;SDS011;32503;47.748;8.960;2023-08-06T12:00:22;0.70;;;0.70;;
3149;SDS011;32503;47.748;8.960;2023-08-06T12:02:51;0.60;;;0.43;;
3149;SDS011;32503;47.748;8.960;2023-08-06T12:05:21;0.60;;;0.40;;
3149;SDS011;32503;47.748;8.960;2023-08-06T12:07:50;0.57;;;0.40;;
3149;SDS011;32503;47.748;8.960;2023-08-06T12:10:19;0.50;;;0.40;;
3149;SDS011;32503;47.748;8.960;2023-08-06T12:12:48;0.60;;;0.43;;
3149;SDS011;32503;47.748;8.960;2023-08-06T12:15:16;0.60;;;0.40;;
3149;SDS011;32503;47.748;8.960;2023-08-06T12:17:44;0.50;;;0.40;;
3149;SDS011;32503;47.748;8.960;2023-08-06T12:20:11;0.60;;;0.40;;
3149;SDS011;32503;47.748;8.960;2023-08-06T12:22:40;0.70;;;0.50;;
3149;SDS011;32503;47.748;8.960;2023-08-06T12:25:08;1.00;;;0.40;;
3149;SDS011;32503;47.748;8.960;2023-08-06T12:27:37;0.60;;;0.40;;
3149;SDS011;32503;47.748;8.960;2023-08-06T12:30:06;0.60;;;0.40;;
3149;SDS011;32503;47.748;8.960;2023-08-06T12:32:34;0.70;;;0.40;;
3149;SDS011;32503;47.748;8.960;2023-08-06T12:35:01;0.60;;;0.40;;
3149;SDS011;32503;47.748;8.960;2023-08-06T12:37:29;0.60;;;0.40;;
3149;SDS011;32503;47.748;8.960;2023-08-06T12:39:58;1.47;;;0.40;;
3149;SDS011;32503;47.748;8.960;2023-08-06T12:42:25;0.60;;;0.40;;
3149;SDS011;32503;47.748;8.960;2023-08-06T12:44:52;0.57;;;0.43;;
3149;SDS011;32503;47.748;8.960;2023-08-06T12:47:19;0.50;;;0.40;;
3149;SDS011;32503;47.748;8.960;2023-08-06T12:49:46;1.23;;;0.50;;
3149;SDS011;32503;47.748;8.960;2023-08-06T12:52:14;0.60;;;0.50;;
3149;SDS011;32503;47.748;8.960;2023-08-06T12:54:41;0.60;;;0.50;;
3149;SDS011;32503;47.748;8.960;2023-08-06T12:57:12;0.60;;;0.50;;
3149;SDS011;32503;47.748;8.960;2023-08-06T12:59:39;0.70;;;0.50;;
3149;SDS011;32503;47.748;8.960;2023-08-06T13:02:06;0.67;;;0.50;;
3149;SDS011;32503;47.748;8.960;2023-08-06T13:04:33;0.60;;;0.50;;
3149;SDS011;32503;47.748;8.960;2023-08-06T13:07:01;0.60;;;0.40;;
3149;SDS011;32503;47.748;8.960;2023-08-06T13:09:28;1.00;;;0.50;;
3149;SDS011;32503;47.748;8.960;2023-08-06T13:11:55;0.80;;;0.47;;
3149;SDS011;32503;47.748;8.960;2023-08-06T13:14:24;0.90;;;0.50;;
3149;SDS011;32503;47.748;8.960;2023-08-06T13:16:51;0.60;;;0.50;;
3149;SDS011;32503;47.748;8.960;2023-08-06T13:19:18;0.60;;;0.50;;
3149;SDS011;32503;47.748;8.960;2023-08-06T13:21:58;1.43;;;0.53;;
3149;SDS011;32503;47.748;8.960;2023-08-06T13:24:31;0.80;;;0.60;;
3149;SDS011;32503;47.748;8.960;2023-08-06T13:26:59;0.60;;;0.50;;
3149;SDS011;32503;47.748;8.960;2023-08-06T13:29:28;0.60;;;0.50;;
3149;SDS011;32503;47.748;8.960;2023-08-06T13:31:55;0.67;;;0.63;;
3149;SDS011;32503;47.748;8.960;2023-08-06T13:34:22;0.70;;;0.60;;
3149;SDS011;32503;47.748;8.960;2023-08-06T13:36:49;0.70;;;0.53;;
3149;SDS011;32503;47.748;8.960;2023-08-06T13:39:16;0.70;;;0.60;;
3149;SDS011;32503;47.748;8.960;2023-08-06T13:41:44;0.70;;;0.60;;
3149;SDS011;32503;47.748;8.960;2023-08-06T13:44:11;0.77;;;0.70;;
3149;SDS011;32503;47.748;8.960;2023-08-06T13:46:41;0.70;;;0.60;;
3149;SDS011;32503;47.748;8.960;2023-08-06T13:49:09;0.70;;;0.60;;
3149;SDS011;32503;47.748;8.960;2023-08-06T13:51:36;0.70;;;0.60;;
3149;SDS011;32503;47.748;8.960;2023-08-06T13:54:03;0.80;;;0.73;;
3149;SDS011;32503;47.748;8.960;2023-08-06T13:56:32;0.80;;;0.70;;
3149;SDS011;32503;47.748;8.960;2023-08-06T13:58:59;1.00;;;0.90;;
3149;SDS011;32503;47.748;8.960;2023-08-06T14:01:26;1.00;;;0.80;;
3149;SDS011;32503;47.748;8.960;2023-08-06T14:03:55;1.83;;;0.63;;
3149;SDS011;32503;47.748;8.960;2023-08-06T14:06:22;0.60;;;0.60;;
3149;SDS011;32503;47.748;8.960;2023-08-06T14:08:49;0.83;;;0.70;;
3149;SDS011;32503;47.748;8.960;2023-08-06T14:11:16;0.80;;;0.70;;
3149;SDS011;32503;47.748;8.960;2023-08-06T14:13:43;1.00;;;0.60;;
3149;SDS011;32503;47.748;8.960;2023-08-06T14:16:11;0.80;;;0.80;;
3149;SDS011;32503;47.748;8.960;2023-08-06T14:18:38;1.00;;;0.90;;
3149;SDS011;32503;47.748;8.960;2023-08-06T14:21:07;1.17;;;0.93;;
3149;SDS011;32503;47.748;8.960;2023-08-06T14:23:34;0.90;;;0.60;;
3149;SDS011;32503;47.748;8.960;2023-08-06T14:26:02;0.60;;;0.60;;
3149;SDS011;32503;47.748;8.960;2023-08-06T14:28:29;1.53;;;0.80;;
3149;SDS011;32503;47.748;8.960;2023-08-06T14:30:56;0.60;;;0.60;;
3149;SDS011;32503;47.748;8.960;2023-08-06T14:33:23;0.60;;;0.60;;
3149;SDS011;32503;47.748;8.960;2023-08-06T14:35:50;0.70;;;0.60;;
3149;SDS011;32503;47.748;8.960;2023-08-06T14:38:18;0.70;;;0.60;;
3149;SDS011;32503;47.748;8.960;2023-08-06T14:40:46;0.87;;;0.70;;
3149;SDS011;32503;47.748;8.960;2023-08-06T14:43:13;0.73;;;0.63;;
3149;SDS011;32503;47.748;8.960;2023-08-06T14:45:40;0.80;;;0.70;;
3149;SDS011;32503;47.748;8.960;2023-08-06T14:48:07;0.80;;;0.60;;
3149;SDS011;32503;47.748;8.960;2023-08-06T14:50:34;1.73;;;0.73;;
3149;SDS011;32503;47.748;8.960;2023-08-06T14:53:01;0.90;;;0.80;;
3149;SDS011;32503;47.748;8.960;2023-08-06T14:55:31;0.70;;;0.60;;
3149;SDS011;32503;47.748;8.960;2023-08-06T14:57:58;0.80;;;0.70;;
3149;SDS011;32503;47.748;8.960;2023-08-06T15:00:27;0.70;;;0.70;;
3149;SDS011;32503;47.748;8.960;2023-08-06T15:02:54;0.80;;;0.70;;
3149;SDS011;32503;47.748;8.960;2023-08-06T15:05:21;0.70;;;0.60;;
3149;SDS011;32503;47.748;8.960;2023-08-06T15:07:48;0.80;;;0.80;;